createdAt,value
2018-02-12T00:02:01.007Z,99.90
2018-02-12T00:04:28.767Z,99.90
2018-02-12T00:06:56.581Z,99.90
2018-02-12T00:09:24.347Z,99.90
2018-02-12T00:11:52.871Z,99.90
2018-02-12T00:14:20.688Z,99.90
2018-02-12T00:16:48.443Z,99.90
2018-02-12T00:19:16.208Z,99.90
2018-02-12T00:21:44.039Z,99.90
2018-02-12T00:24:11.796Z,99.90
2018-02-12T00:26:39.546Z,99.90
2018-02-12T00:29:07.377Z,99.90
2018-02-12T00:31:35.899Z,99.90
2018-02-12T00:34:03.656Z,99.90
2018-02-12T00:36:31.469Z,99.90
2018-02-12T00:38:59.996Z,99.90
2018-02-12T00:41:27.760Z,99.90
2018-02-12T00:43:55.566Z,99.90
2018-02-12T00:46:23.324Z,99.90
2018-02-12T00:48:51.076Z,99.90
2018-02-12T00:51:18.892Z,99.90
2018-02-12T00:53:46.650Z,99.90
2018-02-12T00:56:14.408Z,99.90
2018-02-12T00:58:42.223Z,99.90
2018-02-12T01:01:10.016Z,99.90
2018-02-12T01:03:38.539Z,99.90
2018-02-12T01:06:06.371Z,99.90
2018-02-12T01:08:34.139Z,99.90
2018-02-12T01:11:01.903Z,99.90
2018-02-12T01:13:29.715Z,99.90
2018-02-12T01:15:57.483Z,99.90
2018-02-12T01:18:25.239Z,99.90
2018-02-12T01:20:53.049Z,99.90
2018-02-12T01:23:20.809Z,99.90
2018-02-12T01:25:48.567Z,99.90
2018-02-12T01:28:16.391Z,99.90
2018-02-12T01:30:44.151Z,99.90
2018-02-12T01:33:11.912Z,99.90
2018-02-12T01:35:39.732Z,99.90
2018-02-12T01:38:07.505Z,99.90
2018-02-12T01:40:36.087Z,99.90
2018-02-12T01:43:04.093Z,99.90
2018-02-12T01:45:31.903Z,99.90
2018-02-12T01:47:59.659Z,99.90
2018-02-12T01:50:27.544Z,99.90
2018-02-12T01:52:55.308Z,99.90
2018-02-12T01:55:23.062Z,99.90
2018-02-12T01:57:50.872Z,99.90
2018-02-12T02:00:18.635Z,99.90
2018-02-12T02:02:47.176Z,99.90
2018-02-12T02:05:14.995Z,99.90
2018-02-12T02:07:43.528Z,99.90
2018-02-12T02:10:12.057Z,99.90
2018-02-12T02:12:40.632Z,99.90
2018-02-12T02:15:09.152Z,99.90
2018-02-12T02:17:36.919Z,99.90
2018-02-12T02:20:04.760Z,99.90
2018-02-12T02:22:32.577Z,99.90
2018-02-12T02:25:00.396Z,99.90
2018-02-12T02:27:28.206Z,99.90
2018-02-12T02:29:55.960Z,99.90
2018-02-12T02:32:23.713Z,99.90
2018-02-12T02:34:51.532Z,99.90
2018-02-12T02:37:19.290Z,99.90
2018-02-12T02:39:47.059Z,99.90
2018-02-12T02:42:14.885Z,99.90
2018-02-12T02:44:42.652Z,99.90
2018-02-12T02:47:11.180Z,99.90
2018-02-12T02:49:39.019Z,99.90
2018-02-12T02:52:06.787Z,99.90
2018-02-12T02:54:34.538Z,99.90
2018-02-12T02:57:02.356Z,99.90
2018-02-12T02:59:30.116Z,99.90
2018-02-12T03:01:57.892Z,99.90
2018-02-12T03:04:26.000Z,99.90
2018-02-12T03:06:53.764Z,99.90
2018-02-12T03:09:21.534Z,99.90
2018-02-12T03:11:49.352Z,99.90
2018-02-12T03:14:17.116Z,99.90
2018-02-12T03:16:44.871Z,99.90
2018-02-12T03:19:12.687Z,99.90
2018-02-12T03:21:40.447Z,99.90
2018-02-12T03:24:08.216Z,99.90
2018-02-12T03:26:36.028Z,99.90
2018-02-12T03:29:04.555Z,99.90
2018-02-12T03:31:32.323Z,99.90
2018-02-12T03:34:00.139Z,99.90
2018-02-12T03:36:28.669Z,99.90
2018-02-12T03:38:56.430Z,99.90
2018-02-12T03:41:24.252Z,99.90
2018-02-12T03:43:52.778Z,99.90
2018-02-12T03:46:20.555Z,99.90
2018-02-12T03:48:48.367Z,99.90
2018-02-12T03:51:16.166Z,99.90
2018-02-12T03:53:43.950Z,99.90
2018-02-12T03:56:11.766Z,99.90
2018-02-12T03:58:39.525Z,99.90
2018-02-12T04:01:07.280Z,99.90
2018-02-12T04:03:35.102Z,99.90
2018-02-12T04:06:02.860Z,99.90
2018-02-12T04:08:30.634Z,99.90
2018-02-12T04:10:59.218Z,99.90
2018-02-12T04:13:26.980Z,99.90
2018-02-12T04:15:54.740Z,99.90
2018-02-12T04:18:22.805Z,99.90
2018-02-12T04:20:50.567Z,99.90
2018-02-12T04:23:18.324Z,99.90
2018-02-12T04:25:46.144Z,99.90
2018-02-12T04:28:13.908Z,99.90
2018-02-12T04:30:41.674Z,99.90
2018-02-12T04:33:09.489Z,99.90
2018-02-12T04:35:38.016Z,99.90
2018-02-12T04:38:05.768Z,99.90
2018-02-12T04:40:33.608Z,99.90
2018-02-12T04:43:02.137Z,99.90
2018-02-12T04:45:29.902Z,99.90
2018-02-12T04:47:57.721Z,99.90
2018-02-12T04:50:25.483Z,99.90
2018-02-12T04:52:53.243Z,99.90
2018-02-12T04:55:21.058Z,99.90
2018-02-12T04:57:48.820Z,99.90
2018-02-12T05:00:16.595Z,99.90
2018-02-12T05:02:44.412Z,99.90
2018-02-12T05:05:12.176Z,99.90
2018-02-12T05:07:39.943Z,99.90
2018-02-12T05:10:07.757Z,99.90
2018-02-12T05:12:36.276Z,99.90
2018-02-12T05:15:04.057Z,99.90
2018-02-12T05:17:31.871Z,99.90
2018-02-12T05:20:00.398Z,99.90
2018-02-12T05:22:28.172Z,99.90
2018-02-12T05:24:55.984Z,99.90
2018-02-12T05:27:23.740Z,99.90
2018-02-12T05:29:52.259Z,99.90
2018-02-12T05:32:20.075Z,99.90
2018-02-12T05:34:48.596Z,99.90
2018-02-12T05:37:17.117Z,99.90
2018-02-12T05:39:44.933Z,99.90
2018-02-12T05:42:12.693Z,99.90
2018-02-12T05:44:40.453Z,99.90
2018-02-12T05:47:08.269Z,99.90
2018-02-12T05:49:36.024Z,99.90
2018-02-12T05:52:04.561Z,99.90
2018-02-12T05:54:32.367Z,99.90
2018-02-12T05:57:00.116Z,99.90
2018-02-12T05:59:27.888Z,99.90
2018-02-12T06:01:55.706Z,99.90
2018-02-12T06:04:23.474Z,99.90
2018-02-12T06:06:51.240Z,99.90
2018-02-12T06:09:19.053Z,99.90
2018-02-12T06:11:47.580Z,99.90
2018-02-12T06:14:15.346Z,99.90
2018-02-12T06:16:43.164Z,99.90
2018-02-12T06:19:11.687Z,99.90
2018-02-12T06:21:39.449Z,99.90
2018-02-12T06:24:07.269Z,99.90
2018-02-12T06:26:35.806Z,99.90
2018-02-12T06:29:03.564Z,99.90
2018-02-12T06:31:31.385Z,99.90
2018-02-12T06:33:59.181Z,99.90
2018-02-12T06:36:26.943Z,99.90
2018-02-12T06:38:54.760Z,99.90
2018-02-12T06:41:23.308Z,99.90
2018-02-12T06:43:51.067Z,99.90
2018-02-12T06:46:18.896Z,99.90
2018-02-12T06:48:46.650Z,99.90
2018-02-12T06:51:14.416Z,99.90
2018-02-12T06:53:42.234Z,99.90
2018-02-12T06:56:09.991Z,99.90
2018-02-12T06:58:37.775Z,99.90
2018-02-12T07:01:06.360Z,99.90
2018-02-12T07:03:34.882Z,99.90
2018-02-12T07:06:02.644Z,99.90
2018-02-12T07:08:30.467Z,99.90
2018-02-12T07:10:58.994Z,99.90
2018-02-12T07:13:26.752Z,99.90
2018-02-12T07:15:54.568Z,99.90
2018-02-12T07:18:23.094Z,99.90
2018-02-12T07:20:50.851Z,99.90
2018-02-12T07:23:18.675Z,99.90
2018-02-12T07:25:47.209Z,99.90
2018-02-12T07:28:14.975Z,99.90
2018-02-12T07:30:42.793Z,99.90
2018-02-12T07:33:10.569Z,99.90
2018-02-12T07:35:38.344Z,99.90
2018-02-12T07:38:06.156Z,99.90
2018-02-12T07:40:34.687Z,81.00
2018-02-12T07:43:02.452Z,80.70
2018-02-12T07:45:30.283Z,59.20
2018-02-12T07:47:58.043Z,49.70
2018-02-12T07:50:25.804Z,45.00
2018-02-12T07:52:53.616Z,40.60
2018-02-12T07:55:21.395Z,37.80
2018-02-12T07:57:49.164Z,39.20
2018-02-12T08:00:16.984Z,43.80
2018-02-12T08:02:44.758Z,50.60
2018-02-12T08:05:12.508Z,59.70
2018-02-12T08:07:40.397Z,63.60
2018-02-12T08:10:08.159Z,72.70
2018-02-12T08:12:35.927Z,75.90
2018-02-12T08:15:03.790Z,86.60
2018-02-12T08:17:31.547Z,79.20
2018-02-12T08:19:59.308Z,80.80
2018-02-12T08:22:27.130Z,90.10
2018-02-12T08:24:54.887Z,90.30
2018-02-12T08:27:22.651Z,87.00
2018-02-12T08:29:50.482Z,84.10
2018-02-12T08:32:19.011Z,80.60
2018-02-12T08:34:46.776Z,80.60
2018-02-12T08:37:14.588Z,88.60
2018-02-12T08:39:43.137Z,80.80
2018-02-12T08:42:10.895Z,80.90
2018-02-12T08:44:38.725Z,70.30
2018-02-12T08:47:06.480Z,67.00
2018-02-12T08:49:34.240Z,62.10
2018-02-12T08:52:02.079Z,59.40
2018-02-12T08:54:29.839Z,60.00
2018-02-12T08:56:58.371Z,60.60
2018-02-12T08:59:26.187Z,60.60
2018-02-12T09:01:54.726Z,42.70
2018-02-12T09:04:22.504Z,42.40
2018-02-12T09:06:50.329Z,36.50
2018-02-12T09:09:18.085Z,34.50
2018-02-12T09:11:45.844Z,32.50
2018-02-12T09:14:13.660Z,30.00
2018-02-12T09:16:41.430Z,31.50
2018-02-12T09:19:09.958Z,39.50
2018-02-12T09:21:37.780Z,39.50
2018-02-12T09:24:06.308Z,48.00
2018-02-12T09:26:34.064Z,48.20
2018-02-12T09:29:01.872Z,50.80
2018-02-12T09:31:29.678Z,52.00
2018-02-12T09:33:57.428Z,55.60
2018-02-12T09:36:25.267Z,61.50
2018-02-12T09:38:53.035Z,62.40
2018-02-12T09:41:21.564Z,57.70
2018-02-12T09:43:49.370Z,57.70
2018-02-12T09:46:17.890Z,58.00
2018-02-12T09:48:45.640Z,58.00
2018-02-12T09:51:13.450Z,57.30
2018-02-12T09:53:41.217Z,57.90
2018-02-12T09:56:08.985Z,57.60
2018-02-12T09:58:36.808Z,59.20
2018-02-12T10:01:04.574Z,59.20
2018-02-12T10:03:32.336Z,64.50
2018-02-12T10:06:00.148Z,57.60
2018-02-12T10:08:28.684Z,59.30
2018-02-12T10:10:56.439Z,59.20
2018-02-12T10:13:24.253Z,62.10
2018-02-12T10:15:52.780Z,58.60
2018-02-12T10:18:20.539Z,58.60
2018-02-12T10:20:48.362Z,55.70
2018-02-12T10:23:16.883Z,54.30
2018-02-12T10:25:44.631Z,54.30
2018-02-12T10:28:12.461Z,53.00
2018-02-12T10:30:40.973Z,52.50
2018-02-12T10:33:08.737Z,52.60
2018-02-12T10:35:36.549Z,52.20
2018-02-12T10:38:04.325Z,53.40
2018-02-12T10:40:32.848Z,53.90
2018-02-12T10:43:00.654Z,54.50
2018-02-12T10:45:28.407Z,50.90
2018-02-12T10:47:56.175Z,51.10
2018-02-12T10:50:23.983Z,51.70
2018-02-12T10:52:51.738Z,50.90
2018-02-12T10:55:19.495Z,50.40
2018-02-12T10:57:47.342Z,53.30
2018-02-12T11:00:15.864Z,51.30
2018-02-12T11:02:43.621Z,51.30
2018-02-12T11:05:11.431Z,48.30
2018-02-12T11:07:39.187Z,49.30
2018-02-12T11:10:06.934Z,46.80
2018-02-12T11:12:34.758Z,46.10
2018-02-12T11:15:02.511Z,44.90
2018-02-12T11:17:30.275Z,46.30
2018-02-12T11:19:58.163Z,48.40
2018-02-12T11:22:25.935Z,47.60
2018-02-12T11:24:53.709Z,46.10
2018-02-12T11:27:21.530Z,48.00
2018-02-12T11:29:49.303Z,49.10
2018-02-12T11:32:17.060Z,52.60
2018-02-12T11:34:44.871Z,49.40
2018-02-12T11:37:12.640Z,50.50
2018-02-12T11:39:40.395Z,50.20
2018-02-12T11:42:08.213Z,49.40
2018-02-12T11:44:36.019Z,50.10
2018-02-12T11:47:03.771Z,50.90
2018-02-12T11:49:31.581Z,53.40
2018-02-12T11:51:59.328Z,52.80
2018-02-12T11:54:27.851Z,54.10
2018-02-12T11:56:55.676Z,54.10
2018-02-12T11:59:24.199Z,54.70
2018-02-12T12:01:51.956Z,54.80
2018-02-12T12:04:19.768Z,56.50
2018-02-12T12:06:48.290Z,58.20
2018-02-12T12:09:16.043Z,58.20
2018-02-12T12:11:43.859Z,56.60
2018-02-12T12:14:11.608Z,55.70
2018-02-12T12:16:39.368Z,54.30
2018-02-12T12:19:07.184Z,55.50
2018-02-12T12:21:34.935Z,56.30
2018-02-12T12:24:03.459Z,55.10
2018-02-12T12:26:31.267Z,55.10
2018-02-12T12:28:59.796Z,59.20
2018-02-12T12:31:27.547Z,59.10
2018-02-12T12:33:55.364Z,59.10
2018-02-12T12:36:23.136Z,51.50
2018-02-12T12:38:51.655Z,50.20
2018-02-12T12:41:19.475Z,50.20
2018-02-12T12:43:48.003Z,51.30
2018-02-12T12:46:15.752Z,51.30
2018-02-12T12:48:43.563Z,51.30
2018-02-12T12:51:11.323Z,52.50
2018-02-12T12:53:39.076Z,52.90
2018-02-12T12:56:06.879Z,53.90
2018-02-12T12:58:34.630Z,54.80
2018-02-12T13:01:03.152Z,54.70
2018-02-12T13:03:30.959Z,54.60
2018-02-12T13:05:58.713Z,53.80
2018-02-12T13:08:26.470Z,52.30
2018-02-12T13:10:54.289Z,52.00
2018-02-12T13:13:22.049Z,52.80
2018-02-12T13:15:49.817Z,49.00
2018-02-12T13:18:17.632Z,49.80
2018-02-12T13:20:45.388Z,50.60
2018-02-12T13:23:13.144Z,55.60
2018-02-12T13:25:40.960Z,54.60
2018-02-12T13:28:08.720Z,54.00
2018-02-12T13:30:36.472Z,53.40
2018-02-12T13:33:04.279Z,52.80
2018-02-12T13:35:32.032Z,52.60
2018-02-12T13:37:59.791Z,50.70
2018-02-12T13:40:27.600Z,49.80
2018-02-12T13:42:56.142Z,49.90
2018-02-12T13:45:23.905Z,49.80
2018-02-12T13:47:51.736Z,50.60
2018-02-12T13:50:19.495Z,48.60
2018-02-12T13:52:47.387Z,49.10
2018-02-12T13:55:15.200Z,49.80
2018-02-12T13:57:42.951Z,52.20
2018-02-12T14:00:11.481Z,51.30
2018-02-12T14:02:39.288Z,51.10
2018-02-12T14:05:07.811Z,50.90
2018-02-12T14:07:37.215Z,51.90
2018-02-12T14:10:05.016Z,51.90
2018-02-12T14:12:32.782Z,51.50
2018-02-12T14:15:00.548Z,53.70
2018-02-12T14:17:28.355Z,54.20
2018-02-12T14:19:56.108Z,54.50
2018-02-12T14:22:23.859Z,52.80
2018-02-12T14:24:52.440Z,56.10
2018-02-12T14:27:20.973Z,54.60
2018-02-12T14:29:48.723Z,54.60
2018-02-12T14:32:16.534Z,56.10
2018-02-12T14:34:45.053Z,54.70
2018-02-12T14:37:12.794Z,54.70
2018-02-12T14:39:40.600Z,52.90
2018-02-12T14:42:08.360Z,52.90
2018-02-12T14:44:36.115Z,52.10
2018-02-12T14:47:03.938Z,53.80
2018-02-12T14:49:31.695Z,52.00
2018-02-12T14:51:59.456Z,52.50
2018-02-12T14:54:27.290Z,53.00
2018-02-12T14:56:55.052Z,54.00
2018-02-12T14:59:22.808Z,53.90
2018-02-12T15:01:50.670Z,53.80
2018-02-12T15:04:18.421Z,54.30
2018-02-12T15:06:46.177Z,54.90
2018-02-12T15:09:13.999Z,58.10
2018-02-12T15:11:41.759Z,56.70
2018-02-12T15:14:09.519Z,57.40
2018-02-12T15:16:37.329Z,59.50
2018-02-12T15:19:05.096Z,58.90
2018-02-12T15:21:32.852Z,59.80
2018-02-12T15:24:00.668Z,60.60
2018-02-12T15:26:28.438Z,61.50
2018-02-12T15:28:56.192Z,62.90
2018-02-12T15:31:24.036Z,63.60
2018-02-12T15:33:52.627Z,64.90
2018-02-12T15:36:21.157Z,66.70
2018-02-12T15:38:48.968Z,66.70
2018-02-12T15:41:17.486Z,68.70
2018-02-12T15:43:45.772Z,68.70
2018-02-12T15:46:13.578Z,69.60
2018-02-12T15:48:42.125Z,71.60
2018-02-12T15:51:09.899Z,71.60
2018-02-12T15:53:37.756Z,71.60
2018-02-12T15:56:05.512Z,72.60
2018-02-12T15:58:34.045Z,73.20
2018-02-12T16:01:01.863Z,73.70
2018-02-12T16:03:29.619Z,76.40
2018-02-12T16:05:58.555Z,76.30
2018-02-12T16:08:26.374Z,78.10
2018-02-12T16:10:54.132Z,78.20
2018-02-12T16:13:21.896Z,78.50
2018-02-12T16:15:49.707Z,80.00
2018-02-12T16:18:17.481Z,81.60
2018-02-12T16:20:45.242Z,82.30
2018-02-12T16:23:13.057Z,84.50
2018-02-12T16:25:40.827Z,85.60
2018-02-12T16:28:08.583Z,87.20
2018-02-12T16:30:36.400Z,91.20
2018-02-12T16:33:04.177Z,90.50
2018-02-12T16:35:31.931Z,90.90
2018-02-12T16:37:59.751Z,91.90
2018-02-12T16:40:28.306Z,93.60
2018-02-12T16:42:56.109Z,93.60
2018-02-12T16:45:23.915Z,95.80
2018-02-12T16:47:51.682Z,97.10
2018-02-12T16:50:19.441Z,98.30
2018-02-12T16:52:47.259Z,99.60
2018-02-12T16:55:15.022Z,99.90
2018-02-12T16:57:42.798Z,99.90
2018-02-12T17:00:10.675Z,99.90
2018-02-12T17:02:38.444Z,99.90
2018-02-12T17:05:06.220Z,99.90
2018-02-12T17:07:34.043Z,99.90
2018-02-12T17:10:01.827Z,99.90
2018-02-12T17:12:29.588Z,99.90
2018-02-12T17:14:57.403Z,99.90
2018-02-12T17:17:25.932Z,99.90
2018-02-12T17:19:53.695Z,99.90
2018-02-12T17:22:21.512Z,99.90
2018-02-12T17:24:50.033Z,99.90
2018-02-12T17:27:17.792Z,99.90
2018-02-12T17:29:45.608Z,99.90
2018-02-12T17:32:14.129Z,99.90
2018-02-12T17:34:41.891Z,99.90
2018-02-12T17:37:09.713Z,99.90
2018-02-12T17:39:38.245Z,99.90
2018-02-12T17:42:06.013Z,99.90
2018-02-12T17:44:33.826Z,99.90
2018-02-12T17:47:02.353Z,99.90
2018-02-12T17:49:30.134Z,99.90
2018-02-12T17:51:58.034Z,99.90
2018-02-12T17:54:26.566Z,99.90
2018-02-12T17:56:54.328Z,99.90
2018-02-12T17:59:22.156Z,99.90
2018-02-12T18:01:49.913Z,99.90
2018-02-12T18:04:17.681Z,99.90
2018-02-12T18:06:45.500Z,99.90
2018-02-12T18:09:13.261Z,99.90
2018-02-12T18:11:41.020Z,99.90
2018-02-12T18:14:08.836Z,99.90
2018-02-12T18:16:36.591Z,99.90
2018-02-12T18:19:05.112Z,99.90
2018-02-12T18:21:33.684Z,99.90
2018-02-12T18:24:01.442Z,99.90
2018-02-12T18:26:29.217Z,99.90
2018-02-12T18:28:57.028Z,99.90
2018-02-12T18:31:24.792Z,99.90
2018-02-12T18:33:52.558Z,99.90
2018-02-12T18:36:20.415Z,99.90
2018-02-12T18:38:48.167Z,99.90
2018-02-12T18:41:16.687Z,99.90
2018-02-12T18:43:44.511Z,99.90
2018-02-12T18:46:13.046Z,99.90
2018-02-12T18:48:40.809Z,99.90
2018-02-12T18:51:08.636Z,99.90
2018-02-12T18:53:36.400Z,99.90
2018-02-12T18:56:04.217Z,99.90
2018-02-12T18:58:32.037Z,99.90
2018-02-12T19:00:59.791Z,99.90
2018-02-12T19:03:27.544Z,99.90
2018-02-12T19:05:55.384Z,99.90
2018-02-12T19:08:23.916Z,99.90
2018-02-12T19:10:51.691Z,99.90
2018-02-12T19:13:19.513Z,99.90
2018-02-12T19:15:47.291Z,99.90
2018-02-12T19:18:15.063Z,99.90
2018-02-12T19:20:43.655Z,99.90
2018-02-12T19:23:11.445Z,99.90
2018-02-12T19:25:39.199Z,99.90
2018-02-12T19:28:07.052Z,99.90
2018-02-12T19:30:34.827Z,99.90
2018-02-12T19:33:02.592Z,99.90
2018-02-12T19:35:30.404Z,99.90
2018-02-12T19:37:58.164Z,99.90
2018-02-12T19:40:25.925Z,99.90
2018-02-12T19:42:54.706Z,99.90
2018-02-12T19:45:22.473Z,99.90
2018-02-12T19:47:50.261Z,99.90
2018-02-12T19:50:18.080Z,99.90
2018-02-12T19:52:45.840Z,99.90
2018-02-12T19:55:13.600Z,99.90
2018-02-12T19:57:41.412Z,99.90
2018-02-12T20:00:09.956Z,99.90
2018-02-12T20:02:37.723Z,99.90
2018-02-12T20:05:05.567Z,99.90
2018-02-12T20:07:34.097Z,99.90
2018-02-12T20:10:01.851Z,99.90
2018-02-12T20:12:29.668Z,99.90
2018-02-12T20:14:58.191Z,99.90
2018-02-12T20:17:25.948Z,99.90
2018-02-12T20:19:53.758Z,99.90
2018-02-12T20:22:22.300Z,99.90
2018-02-12T20:24:50.069Z,99.90
2018-02-12T20:27:17.889Z,99.90
2018-02-12T20:29:45.643Z,99.90
2018-02-12T20:32:13.400Z,99.90
2018-02-12T20:34:42.012Z,99.90
2018-02-12T20:37:09.781Z,99.90
2018-02-12T20:39:37.558Z,99.90
2018-02-12T20:42:05.377Z,99.90
2018-02-12T20:44:33.172Z,99.90
2018-02-12T20:47:00.944Z,99.90
2018-02-12T20:49:28.767Z,99.90
2018-02-12T20:51:56.532Z,99.90
2018-02-12T20:54:24.382Z,99.90
2018-02-12T20:56:52.210Z,99.90
2018-02-12T20:59:20.070Z,99.90
2018-02-12T21:01:48.007Z,99.90
2018-02-12T21:04:15.820Z,99.90
2018-02-12T21:06:43.590Z,99.90
2018-02-12T21:09:12.116Z,99.90
2018-02-12T21:11:39.964Z,99.90
2018-02-12T21:14:07.753Z,99.90
2018-02-12T21:16:35.537Z,99.90
2018-02-12T21:19:03.358Z,99.90
2018-02-12T21:21:31.147Z,99.90
2018-02-12T21:23:58.909Z,99.90
2018-02-12T21:26:26.727Z,99.90
2018-02-12T21:28:54.483Z,99.90
2018-02-12T21:31:22.248Z,99.90
2018-02-12T21:33:50.064Z,99.90
2018-02-12T21:36:17.828Z,99.90
2018-02-12T21:38:45.596Z,99.90
2018-02-12T21:41:13.687Z,99.90
2018-02-12T21:43:42.401Z,99.90
2018-02-12T21:46:10.173Z,99.90
2018-02-12T21:48:38.091Z,99.90
2018-02-12T21:51:06.818Z,99.90
2018-02-12T21:53:34.711Z,99.90
2018-02-12T21:56:02.541Z,99.90
2018-02-12T21:58:30.308Z,99.90
2018-02-12T22:00:58.079Z,99.90
2018-02-12T22:03:25.899Z,99.90
2018-02-12T22:05:54.495Z,99.90
2018-02-12T22:08:22.260Z,99.90
2018-02-12T22:10:50.081Z,99.90
2018-02-12T22:13:17.837Z,99.90
2018-02-12T22:15:45.595Z,99.90
2018-02-12T22:18:13.416Z,99.90
2018-02-12T22:20:41.190Z,99.90
2018-02-12T22:23:09.098Z,99.90
2018-02-12T22:25:37.750Z,99.90
2018-02-12T22:28:05.510Z,99.90
2018-02-12T22:30:33.286Z,99.90
2018-02-12T22:33:01.120Z,99.90
2018-02-12T22:35:28.892Z,99.90
2018-02-12T22:37:56.673Z,99.90
2018-02-12T22:40:25.255Z,99.90
2018-02-12T22:42:53.024Z,99.90
2018-02-12T22:45:20.809Z,99.90
2018-02-12T22:47:49.416Z,99.90
2018-02-12T22:50:17.190Z,99.90
2018-02-12T22:52:44.947Z,99.90
2018-02-12T22:55:12.782Z,99.90
2018-02-12T22:57:41.319Z,99.90
2018-02-12T23:00:09.853Z,99.90
2018-02-12T23:02:37.682Z,99.90
2018-02-12T23:05:05.447Z,99.90
2018-02-12T23:07:33.211Z,99.90
2018-02-12T23:10:01.033Z,99.90
2018-02-12T23:12:29.579Z,99.90
2018-02-12T23:14:58.113Z,99.90
2018-02-12T23:17:25.927Z,99.90
2018-02-12T23:19:53.689Z,99.90
2018-02-12T23:22:21.444Z,99.90
2018-02-12T23:24:50.024Z,99.90
2018-02-12T23:27:18.577Z,99.90
2018-02-12T23:29:46.331Z,99.90
2018-02-12T23:32:14.151Z,99.90
2018-02-12T23:34:41.917Z,99.90
2018-02-12T23:37:09.681Z,99.90
2018-02-12T23:39:37.497Z,99.90
2018-02-12T23:42:05.258Z,99.90
2018-02-12T23:44:33.031Z,99.90
2018-02-12T23:47:01.620Z,99.90
2018-02-12T23:49:30.146Z,99.90
2018-02-12T23:51:57.908Z,99.90
2018-02-12T23:54:25.778Z,99.90
2018-02-12T23:56:53.543Z,99.90
2018-02-12T23:59:21.307Z,99.90
